createdAt,value
2022-09-23T00:00:21.547Z,0
2022-09-23T00:01:37.831Z,0
2022-09-23T00:02:54.129Z,0
2022-09-23T00:04:10.431Z,0
2022-09-23T00:05:26.726Z,0
2022-09-23T00:06:43.017Z,0
2022-09-23T00:07:59.302Z,0
2022-09-23T00:10:31.889Z,0
2022-09-23T00:11:48.175Z,0
2022-09-23T00:13:03.487Z,0
2022-09-23T00:14:19.781Z,0
2022-09-23T00:15:36.081Z,0
2022-09-23T00:16:52.380Z,0
2022-09-23T00:18:08.656Z,0
2022-09-23T00:19:24.961Z,0
2022-09-23T00:20:41.245Z,0
2022-09-23T00:21:57.553Z,0
2022-09-23T00:23:13.826Z,0
2022-09-23T00:24:30.121Z,0
2022-09-23T00:25:46.423Z,0
2022-09-23T00:27:02.724Z,0
2022-09-23T00:28:19.008Z,0
2022-09-23T00:29:34.309Z,0
2022-09-23T00:30:50.601Z,0
2022-09-23T00:32:06.894Z,0
2022-09-23T00:33:23.190Z,0
2022-09-23T00:34:39.492Z,0
2022-09-23T00:35:55.792Z,0
2022-09-23T00:37:11.090Z,0
2022-09-23T00:38:27.384Z,0
2022-09-23T00:39:43.693Z,0
2022-09-23T00:40:59.983Z,0
2022-09-23T00:42:16.277Z,0
2022-09-23T00:43:32.572Z,0
2022-09-23T00:44:48.846Z,0
2022-09-23T00:46:05.147Z,0
2022-09-23T00:47:21.447Z,0
2022-09-23T00:48:37.726Z,0
2022-09-23T00:49:54.025Z,0
2022-09-23T00:51:10.319Z,0
2022-09-23T00:52:26.607Z,0
2022-09-23T00:53:41.918Z,0
2022-09-23T00:54:58.220Z,0
2022-09-23T00:56:14.501Z,0
2022-09-23T00:57:30.797Z,0
2022-09-23T00:58:47.096Z,0
2022-09-23T01:00:03.380Z,0
2022-09-23T01:01:19.673Z,0
2022-09-23T01:02:35.980Z,0
2022-09-23T01:03:52.275Z,0
2022-09-23T01:05:08.565Z,0
2022-09-23T01:06:24.855Z,0
2022-09-23T01:07:41.148Z,0
2022-09-23T01:08:57.445Z,0
2022-09-23T01:10:12.747Z,0
2022-09-23T01:11:29.046Z,0
2022-09-23T01:12:45.337Z,0
2022-09-23T01:14:01.632Z,0
2022-09-23T01:15:17.921Z,0
2022-09-23T01:16:34.210Z,0
2022-09-23T01:17:50.500Z,0
2022-09-23T01:19:06.807Z,0
2022-09-23T01:20:23.089Z,0
2022-09-23T01:21:39.395Z,0
2022-09-23T01:22:55.679Z,0
2022-09-23T01:24:11.979Z,0
2022-09-23T01:25:28.266Z,0
2022-09-23T01:26:43.585Z,0
2022-09-23T01:27:59.859Z,0
2022-09-23T01:29:16.171Z,0
2022-09-23T01:30:32.454Z,0
2022-09-23T01:31:48.751Z,0
2022-09-23T01:33:05.037Z,0
2022-09-23T01:34:21.330Z,0
2022-09-23T01:35:37.624Z,0
2022-09-23T01:36:53.914Z,0
2022-09-23T01:38:10.215Z,0
2022-09-23T01:39:26.497Z,0
2022-09-23T01:40:42.807Z,0
2022-09-23T01:41:59.097Z,0
2022-09-23T01:43:14.391Z,0
2022-09-23T01:44:30.700Z,0
2022-09-23T01:45:46.979Z,0
2022-09-23T01:47:03.271Z,0
2022-09-23T01:48:19.572Z,0
2022-09-23T01:49:35.863Z,0
2022-09-23T01:50:52.160Z,0
2022-09-23T01:52:08.460Z,0
2022-09-23T01:53:24.742Z,0
2022-09-23T01:54:41.031Z,0
2022-09-23T01:55:57.339Z,0
2022-09-23T01:57:13.630Z,0
2022-09-23T01:58:29.928Z,0
2022-09-23T01:59:45.219Z,0
2022-09-23T02:01:01.526Z,0
2022-09-23T02:02:17.814Z,0
2022-09-23T02:03:34.113Z,0
2022-09-23T02:04:50.399Z,0
2022-09-23T02:06:06.689Z,0
2022-09-23T02:07:22.983Z,0
2022-09-23T02:08:39.279Z,0
2022-09-23T02:09:55.570Z,0
2022-09-23T02:11:11.873Z,0
2022-09-23T02:12:28.169Z,0
2022-09-23T02:13:44.444Z,0
2022-09-23T02:15:00.750Z,0
2022-09-23T02:16:16.053Z,0
2022-09-23T02:17:32.343Z,0
2022-09-23T02:18:48.635Z,0
2022-09-23T02:20:04.945Z,0
2022-09-23T02:21:21.223Z,0
2022-09-23T02:22:37.519Z,0
2022-09-23T02:23:53.813Z,0
2022-09-23T02:25:10.108Z,0
2022-09-23T02:26:26.401Z,0
2022-09-23T02:27:42.699Z,0
2022-09-23T02:28:58.991Z,0
2022-09-23T02:30:15.285Z,0
2022-09-23T02:31:31.579Z,0
2022-09-23T02:32:46.884Z,0
2022-09-23T02:34:03.166Z,0
2022-09-23T02:35:19.479Z,0
2022-09-23T02:36:35.761Z,0
2022-09-23T02:37:52.049Z,0
2022-09-23T02:39:08.350Z,0
2022-09-23T02:40:24.635Z,0
2022-09-23T02:41:40.928Z,0
2022-09-23T02:42:57.234Z,0
2022-09-23T02:44:13.531Z,0
2022-09-23T02:45:29.811Z,0
2022-09-23T02:46:46.102Z,0
2022-09-23T02:48:02.396Z,0
2022-09-23T02:49:17.714Z,0
2022-09-23T02:50:33.993Z,0
2022-09-23T02:51:50.295Z,0
2022-09-23T02:53:06.594Z,0
2022-09-23T02:54:22.891Z,0
2022-09-23T02:55:39.178Z,0
2022-09-23T02:56:55.470Z,0
2022-09-23T02:58:11.758Z,0
2022-09-23T02:59:28.064Z,0
2022-09-23T03:00:44.356Z,0
2022-09-23T03:02:00.648Z,0
2022-09-23T03:03:16.928Z,0
2022-09-23T03:04:33.227Z,0
2022-09-23T03:05:48.526Z,0
2022-09-23T03:07:04.833Z,0
2022-09-23T03:08:21.114Z,0
2022-09-23T03:09:37.420Z,0
2022-09-23T03:10:53.704Z,0
2022-09-23T03:12:10.003Z,0
2022-09-23T03:13:26.286Z,0
2022-09-23T03:14:42.578Z,0
2022-09-23T03:15:58.874Z,0
2022-09-23T03:17:15.167Z,0
2022-09-23T03:18:31.467Z,0
2022-09-23T03:19:47.764Z,0
2022-09-23T03:21:04.055Z,0
2022-09-23T03:22:19.355Z,0
2022-09-23T03:23:35.645Z,0
2022-09-23T03:24:51.953Z,0
2022-09-23T03:26:08.244Z,0
2022-09-23T03:27:24.541Z,0
2022-09-23T03:28:40.836Z,0
2022-09-23T03:29:57.114Z,0
2022-09-23T03:31:13.413Z,0
2022-09-23T03:32:29.705Z,0
2022-09-23T03:33:46.002Z,0
2022-09-23T03:35:02.298Z,0
2022-09-23T03:36:18.586Z,0
2022-09-23T03:37:34.877Z,0
2022-09-23T03:38:50.193Z,0
2022-09-23T03:40:06.478Z,0
2022-09-23T03:41:22.772Z,0
2022-09-23T03:42:39.066Z,0
2022-09-23T03:43:55.363Z,0
2022-09-23T03:45:11.651Z,0
2022-09-23T03:46:27.955Z,0
2022-09-23T03:47:44.239Z,0
2022-09-23T03:49:00.531Z,0
2022-09-23T03:50:16.825Z,0
2022-09-23T03:51:33.119Z,0
2022-09-23T03:52:49.420Z,0
2022-09-23T03:54:05.703Z,0
2022-09-23T03:55:21.025Z,0
2022-09-23T03:56:37.299Z,0
2022-09-23T03:57:53.605Z,0
2022-09-23T03:59:09.889Z,0
2022-09-23T04:00:26.189Z,0
2022-09-23T04:01:42.471Z,0
2022-09-23T04:02:58.777Z,0
2022-09-23T04:04:15.058Z,0
2022-09-23T04:05:31.357Z,0
2022-09-23T04:06:47.647Z,0
2022-09-23T04:08:03.949Z,0
2022-09-23T04:09:20.244Z,0
2022-09-23T04:10:36.536Z,0
2022-09-23T04:11:51.847Z,0
2022-09-23T04:13:08.146Z,0
2022-09-23T04:14:24.435Z,0
2022-09-23T04:15:40.725Z,0
2022-09-23T04:16:57.010Z,0
2022-09-23T04:18:13.314Z,0
2022-09-23T04:19:29.609Z,0
2022-09-23T04:20:45.891Z,0
2022-09-23T04:22:02.190Z,0
2022-09-23T04:23:18.485Z,0
2022-09-23T04:24:34.782Z,0
2022-09-23T04:25:51.074Z,0
2022-09-23T04:27:07.299Z,1
2022-09-23T04:28:22.580Z,1
2022-09-23T04:29:38.815Z,1
2022-09-23T04:30:55.115Z,0
2022-09-23T04:32:11.355Z,2
2022-09-23T04:33:27.606Z,1
2022-09-23T04:34:43.890Z,0
2022-09-23T04:36:00.139Z,1
2022-09-23T04:37:16.378Z,1
2022-09-23T04:38:32.610Z,5
2022-09-23T04:39:48.861Z,5
2022-09-23T04:41:05.092Z,6
2022-09-23T04:42:21.338Z,4
2022-09-23T04:43:37.575Z,6
2022-09-23T04:44:52.820Z,9
2022-09-23T04:46:09.069Z,12
2022-09-23T04:47:25.319Z,15
2022-09-23T04:48:41.551Z,16
2022-09-23T04:49:57.796Z,23
2022-09-23T04:51:14.033Z,27
2022-09-23T04:52:29.286Z,31
2022-09-23T04:53:45.526Z,37
2022-09-23T04:55:01.764Z,43
2022-09-23T04:56:18.007Z,53
2022-09-23T04:57:34.244Z,58
2022-09-23T04:58:50.492Z,65
2022-09-23T05:00:06.725Z,75
2022-09-23T05:01:22.961Z,91
2022-09-23T05:02:39.202Z,100
2022-09-23T05:03:55.434Z,112
2022-09-23T05:05:11.681Z,126
2022-09-23T05:06:27.921Z,140
2022-09-23T05:07:44.158Z,151
2022-09-23T05:08:59.409Z,163
2022-09-23T05:10:15.649Z,175
2022-09-23T05:11:31.884Z,190
2022-09-23T05:12:48.123Z,204
2022-09-23T05:14:04.360Z,227
2022-09-23T05:15:20.600Z,248
2022-09-23T05:16:36.843Z,267
2022-09-23T05:17:53.077Z,283
2022-09-23T05:19:09.332Z,300
2022-09-23T05:20:25.563Z,318
2022-09-23T05:21:41.797Z,338
2022-09-23T05:22:58.044Z,363
2022-09-23T05:24:14.277Z,379
2022-09-23T05:25:29.541Z,401
2022-09-23T05:26:45.777Z,423
2022-09-23T05:28:02.000Z,443
2022-09-23T05:29:18.266Z,460
2022-09-23T05:30:34.504Z,483
2022-09-23T05:31:50.729Z,497
2022-09-23T05:33:06.978Z,518
2022-09-23T05:34:23.211Z,535
2022-09-23T05:35:39.455Z,557
2022-09-23T05:36:55.696Z,575
2022-09-23T05:38:11.924Z,593
2022-09-23T05:39:28.167Z,612
2022-09-23T05:40:44.405Z,622
2022-09-23T05:41:59.668Z,636
2022-09-23T05:43:15.898Z,651
2022-09-23T05:44:32.144Z,668
2022-09-23T05:45:48.388Z,683
2022-09-23T05:47:04.627Z,699
2022-09-23T05:48:20.858Z,713
2022-09-23T05:49:37.096Z,728
2022-09-23T05:50:53.332Z,742
2022-09-23T05:52:09.570Z,760
2022-09-23T05:53:25.821Z,774
2022-09-23T05:54:42.062Z,790
2022-09-23T05:55:58.299Z,804
2022-09-23T05:57:14.536Z,819
2022-09-23T05:58:29.794Z,831
2022-09-23T05:59:46.037Z,846
2022-09-23T06:01:02.277Z,861
2022-09-23T06:02:18.505Z,876
2022-09-23T06:03:34.754Z,896
2022-09-23T06:04:50.986Z,916
2022-09-23T06:06:07.232Z,931
2022-09-23T06:07:23.468Z,950
2022-09-23T06:08:39.711Z,965
2022-09-23T06:09:55.934Z,983
2022-09-23T06:11:12.170Z,996
2022-09-23T06:12:28.424Z,1010
2022-09-23T06:13:44.652Z,1025
2022-09-23T06:14:59.904Z,1037
2022-09-23T06:16:16.158Z,1050
2022-09-23T06:17:32.390Z,1060
2022-09-23T06:18:48.635Z,1071
2022-09-23T06:20:04.867Z,1085
2022-09-23T06:21:21.101Z,1099
2022-09-23T06:22:37.337Z,1105
2022-09-23T06:23:53.597Z,1122
2022-09-23T06:25:09.829Z,1140
2022-09-23T06:26:26.060Z,1154
2022-09-23T06:27:42.309Z,1170
2022-09-23T06:28:58.535Z,1189
2022-09-23T06:30:14.795Z,1203
2022-09-23T06:31:30.044Z,1222
2022-09-23T06:32:46.269Z,1240
2022-09-23T06:34:02.524Z,1249
2022-09-23T06:35:18.763Z,1266
2022-09-23T06:36:34.986Z,1279
2022-09-23T06:37:51.235Z,1300
2022-09-23T06:39:07.465Z,1329
2022-09-23T06:40:23.714Z,1365
2022-09-23T06:41:39.945Z,1378
2022-09-23T06:42:56.180Z,1388
2022-09-23T06:44:12.425Z,1436
2022-09-23T06:45:28.661Z,1451
2022-09-23T06:46:44.897Z,1467
2022-09-23T06:48:00.148Z,1487
2022-09-23T06:49:16.394Z,1507
2022-09-23T06:50:32.625Z,1531
2022-09-23T06:51:48.873Z,1548
2022-09-23T06:53:05.118Z,1561
2022-09-23T06:54:21.351Z,1591
2022-09-23T06:55:37.585Z,1597
2022-09-23T06:56:53.822Z,1607
2022-09-23T06:58:10.067Z,1609
2022-09-23T06:59:26.313Z,1622
2022-09-23T07:00:42.544Z,1650
2022-09-23T07:01:58.789Z,1650
2022-09-23T07:03:15.019Z,1669
2022-09-23T07:04:30.277Z,1677
2022-09-23T07:07:02.755Z,1701
2022-09-23T07:08:19.000Z,1733
2022-09-23T07:09:35.227Z,1738
2022-09-23T07:10:51.469Z,1771
2022-09-23T07:12:07.711Z,1840
2022-09-23T07:13:23.961Z,1785
2022-09-23T07:14:40.201Z,1831
2022-09-23T07:15:56.431Z,1852
2022-09-23T07:17:12.667Z,1898
2022-09-23T07:18:28.903Z,1950
2022-09-23T07:19:45.138Z,2013
2022-09-23T07:21:00.406Z,2021
2022-09-23T07:22:16.650Z,1990
2022-09-23T07:23:32.883Z,1972
2022-09-23T07:24:49.131Z,1951
2022-09-23T07:26:05.366Z,2018
2022-09-23T07:27:21.605Z,2040
2022-09-23T07:28:37.833Z,2009
2022-09-23T07:29:54.072Z,2005
2022-09-23T07:31:10.313Z,2035
2022-09-23T07:32:26.551Z,2053
2022-09-23T07:33:42.800Z,2095
2022-09-23T07:34:59.038Z,2096
2022-09-23T07:36:15.263Z,2038
2022-09-23T07:37:30.515Z,2074
2022-09-23T07:38:46.752Z,2101
2022-09-23T07:40:02.993Z,2065
2022-09-23T07:41:19.241Z,2062
2022-09-23T07:42:35.471Z,2179
2022-09-23T07:43:51.724Z,2219
2022-09-23T07:45:07.958Z,2172
2022-09-23T07:46:24.203Z,2307
2022-09-23T07:47:40.426Z,2458
2022-09-23T07:48:56.676Z,2779
2022-09-23T07:50:12.919Z,3309
2022-09-23T07:51:29.159Z,3098
2022-09-23T07:52:45.388Z,3241
2022-09-23T07:54:00.636Z,3402
2022-09-23T07:55:16.890Z,3429
2022-09-23T07:56:33.114Z,3633
2022-09-23T07:57:49.371Z,3796
2022-09-23T07:59:05.595Z,3817
2022-09-23T08:00:21.833Z,4019
2022-09-23T08:01:38.069Z,4088
2022-09-23T08:02:54.325Z,4197
2022-09-23T08:04:10.552Z,4339
2022-09-23T08:05:26.800Z,4453
2022-09-23T08:07:59.269Z,4650
2022-09-23T08:09:15.508Z,4963
2022-09-23T08:10:30.754Z,5157
2022-09-23T08:11:47.007Z,5757
2022-09-23T08:13:03.232Z,6846
2022-09-23T08:14:19.474Z,6379
2022-09-23T08:15:35.716Z,8367
2022-09-23T08:16:51.963Z,11022
2022-09-23T08:18:08.191Z,11616
2022-09-23T08:19:24.430Z,9997
2022-09-23T08:20:40.676Z,10960
2022-09-23T08:21:56.908Z,9329
2022-09-23T08:23:13.153Z,10027
2022-09-23T08:24:29.396Z,12554
2022-09-23T08:25:45.633Z,11200
2022-09-23T08:27:00.879Z,8454
2022-09-23T08:28:17.111Z,7691
2022-09-23T08:29:33.346Z,8439
2022-09-23T08:30:49.593Z,9264
2022-09-23T08:32:05.827Z,8745
2022-09-23T08:33:22.067Z,9793
2022-09-23T08:34:38.316Z,10284
2022-09-23T08:35:54.556Z,9992
2022-09-23T08:37:10.778Z,11202
2022-09-23T08:38:27.026Z,9592
2022-09-23T08:39:43.254Z,6983
2022-09-23T08:40:59.499Z,8359
2022-09-23T08:42:15.739Z,14518
2022-09-23T08:43:31.004Z,13020
2022-09-23T08:44:47.228Z,13528
2022-09-23T08:46:03.465Z,11141
2022-09-23T08:47:19.716Z,12478
2022-09-23T08:48:35.953Z,11247
2022-09-23T08:49:52.192Z,15323
2022-09-23T08:51:08.420Z,15697
2022-09-23T08:52:24.665Z,10231
2022-09-23T08:53:40.904Z,5515
2022-09-23T08:54:57.142Z,10364
2022-09-23T08:56:13.372Z,15640
2022-09-23T08:57:29.624Z,18242
2022-09-23T08:58:45.855Z,19227
2022-09-23T09:00:01.101Z,20322
2022-09-23T09:01:17.342Z,19726
2022-09-23T09:02:33.591Z,23579
2022-09-23T09:03:49.832Z,30718
2022-09-23T09:05:06.068Z,23476
2022-09-23T09:06:22.295Z,12623
2022-09-23T09:07:37.564Z,5394
2022-09-23T09:08:53.793Z,13370
2022-09-23T09:10:10.039Z,25045
2022-09-23T09:11:26.280Z,75009
2022-09-23T09:12:42.514Z,24276
2022-09-23T09:13:58.751Z,25249
2022-09-23T09:15:14.997Z,22418
2022-09-23T09:16:31.230Z,23242
2022-09-23T09:17:47.478Z,23296
2022-09-23T09:19:03.709Z,35335
2022-09-23T09:20:19.949Z,23235
2022-09-23T09:21:36.176Z,11565
2022-09-23T09:22:52.417Z,8407
2022-09-23T09:24:07.687Z,26612
2022-09-23T09:25:23.922Z,36496
2022-09-23T09:26:40.160Z,28897
2022-09-23T09:27:56.387Z,24080
2022-09-23T09:29:12.631Z,20436
2022-09-23T09:30:28.876Z,25486
2022-09-23T09:31:45.099Z,20644
2022-09-23T09:33:01.357Z,27541
2022-09-23T09:34:17.591Z,24799
2022-09-23T09:35:33.827Z,16804
2022-09-23T09:36:50.054Z,10163
2022-09-23T09:38:06.304Z,14107
2022-09-23T09:39:22.543Z,23783
2022-09-23T09:40:37.792Z,14165
2022-09-23T09:41:54.040Z,14555
2022-09-23T09:43:10.273Z,20724
2022-09-23T09:44:26.505Z,19597
2022-09-23T09:45:42.739Z,23820
2022-09-23T09:46:58.997Z,23273
2022-09-23T09:48:15.221Z,21310
2022-09-23T09:49:31.460Z,35146
2022-09-23T09:50:47.705Z,21692
2022-09-23T09:52:03.942Z,14788
2022-09-23T09:53:20.173Z,7412
2022-09-23T09:54:36.421Z,20547
2022-09-23T09:55:52.651Z,20116
2022-09-23T09:57:07.921Z,27855
2022-09-23T09:58:24.154Z,74525
2022-09-23T09:59:40.394Z,78468
2022-09-23T10:00:56.632Z,78202
2022-09-23T10:02:12.872Z,76820
2022-09-23T10:03:29.107Z,72169
2022-09-23T10:04:45.348Z,31127
2022-09-23T10:06:01.580Z,21542
2022-09-23T10:07:17.813Z,10993
2022-09-23T10:08:34.051Z,10980
2022-09-23T10:09:50.300Z,33004
2022-09-23T10:11:06.547Z,32426
2022-09-23T10:12:22.785Z,37309
2022-09-23T10:13:38.028Z,39191
2022-09-23T10:14:54.270Z,22940
2022-09-23T10:16:10.507Z,23398
2022-09-23T10:17:26.746Z,33774
2022-09-23T10:18:42.977Z,29863
2022-09-23T10:19:59.216Z,24223
2022-09-23T10:21:15.457Z,19016
2022-09-23T10:22:31.696Z,13322
2022-09-23T10:23:47.949Z,16730
2022-09-23T10:25:04.179Z,21446
2022-09-23T10:26:20.415Z,23819
2022-09-23T10:27:36.661Z,25013
2022-09-23T10:28:52.891Z,17528
2022-09-23T10:30:08.145Z,19882
2022-09-23T10:31:24.391Z,19775
2022-09-23T10:32:40.631Z,21644
2022-09-23T10:33:56.873Z,21482
2022-09-23T10:35:13.111Z,18607
2022-09-23T10:36:29.347Z,14638
2022-09-23T10:37:45.579Z,12723
2022-09-23T10:39:01.825Z,15033
2022-09-23T10:40:18.052Z,15894
2022-09-23T10:41:34.308Z,15773
2022-09-23T10:42:50.544Z,14726
2022-09-23T10:44:06.772Z,15518
2022-09-23T10:45:23.013Z,15362
2022-09-23T10:46:38.275Z,17330
2022-09-23T10:47:54.505Z,14739
2022-09-23T10:49:10.742Z,13490
2022-09-23T10:50:26.976Z,17181
2022-09-23T10:51:43.220Z,10682
2022-09-23T10:52:59.456Z,13727
2022-09-23T10:54:15.694Z,16653
2022-09-23T10:55:31.944Z,21943
2022-09-23T10:56:48.174Z,25120
2022-09-23T10:58:04.407Z,24244
2022-09-23T10:59:20.662Z,19867
2022-09-23T11:00:36.896Z,21120
2022-09-23T11:01:53.129Z,17625
2022-09-23T11:03:08.393Z,26932
2022-09-23T11:04:24.621Z,24605
2022-09-23T11:05:40.867Z,14403
2022-09-23T11:06:57.094Z,10923
2022-09-23T11:08:13.343Z,25932
2022-09-23T11:09:29.574Z,24040
2022-09-23T11:10:45.822Z,27758
2022-09-23T11:12:02.049Z,34872
2022-09-23T11:13:18.298Z,26039
2022-09-23T11:14:34.524Z,20421
2022-09-23T11:15:50.768Z,26153
2022-09-23T11:17:07.006Z,27279
2022-09-23T11:18:23.240Z,21191
2022-09-23T11:19:38.506Z,14415
2022-09-23T11:20:54.733Z,9795
2022-09-23T11:22:10.991Z,18803
2022-09-23T11:23:27.228Z,7499
2022-09-23T11:24:43.448Z,6178
2022-09-23T11:25:59.702Z,5092
2022-09-23T11:27:15.926Z,8482
2022-09-23T11:28:32.182Z,6928
2022-09-23T11:29:48.416Z,6406
2022-09-23T11:31:04.657Z,6758
2022-09-23T11:32:20.888Z,5921
2022-09-23T11:33:37.130Z,6203
2022-09-23T11:34:53.365Z,8927
2022-09-23T11:36:08.629Z,6966
2022-09-23T11:37:24.852Z,6744
2022-09-23T11:38:41.108Z,6097
2022-09-23T11:39:57.346Z,5173
2022-09-23T11:41:13.577Z,4076
2022-09-23T11:42:29.820Z,2165
2022-09-23T11:43:46.054Z,11257
2022-09-23T11:45:02.293Z,15884
2022-09-23T11:46:18.531Z,4565
2022-09-23T11:47:34.775Z,17509
2022-09-23T11:48:51.002Z,10561
2022-09-23T11:50:07.248Z,7409
2022-09-23T11:51:23.480Z,5279
2022-09-23T11:52:38.727Z,26727
2022-09-23T11:53:54.969Z,18832
2022-09-23T11:55:11.220Z,9006
2022-09-23T11:56:27.456Z,2572
2022-09-23T11:57:43.698Z,17159
2022-09-23T11:58:59.922Z,6695
2022-09-23T12:00:16.158Z,23532
2022-09-23T12:01:32.400Z,76874
2022-09-23T12:02:48.640Z,77150
2022-09-23T12:04:04.888Z,78070
2022-09-23T12:05:21.122Z,77971
2022-09-23T12:06:37.364Z,74675
2022-09-23T12:07:53.607Z,35737
2022-09-23T12:09:08.853Z,24399
2022-09-23T12:11:41.329Z,9720
2022-09-23T12:12:57.568Z,36250
2022-09-23T12:14:13.804Z,33446
2022-09-23T12:15:30.045Z,37187
2022-09-23T12:16:46.287Z,30579
2022-09-23T12:18:02.526Z,31276
2022-09-23T12:19:18.757Z,26620
2022-09-23T12:21:51.246Z,18542
2022-09-23T12:23:07.483Z,8531
2022-09-23T12:24:23.714Z,26559
2022-09-23T12:25:38.982Z,28645
2022-09-23T12:26:55.203Z,32375
2022-09-23T12:28:11.458Z,27572
2022-09-23T12:29:27.695Z,26700
2022-09-23T12:30:43.919Z,29907
2022-09-23T12:32:00.175Z,25770
2022-09-23T12:33:16.406Z,15612
2022-09-23T12:34:32.650Z,5837
2022-09-23T12:35:48.893Z,2639
2022-09-23T12:37:05.123Z,22724
2022-09-23T12:38:21.365Z,15214
2022-09-23T12:39:37.597Z,17324
2022-09-23T12:40:53.843Z,22579
2022-09-23T12:42:09.102Z,21574
2022-09-23T12:43:25.324Z,19465
2022-09-23T12:44:41.565Z,15495
2022-09-23T12:45:57.811Z,17164
2022-09-23T12:47:14.047Z,19813
2022-09-23T12:48:30.279Z,22399
2022-09-23T12:49:46.528Z,19841
2022-09-23T12:51:02.768Z,21769
2022-09-23T12:52:19.013Z,23590
2022-09-23T12:53:35.248Z,19364
2022-09-23T12:54:51.493Z,12269
2022-09-23T12:56:07.716Z,15069
2022-09-23T12:57:23.969Z,5953
2022-09-23T12:58:39.211Z,5326
2022-09-23T12:59:55.454Z,4834
2022-09-23T13:01:11.695Z,4416
2022-09-23T13:02:27.937Z,6096
2022-09-23T13:05:00.407Z,5246
2022-09-23T13:06:16.646Z,5090
2022-09-23T13:07:32.890Z,4711
2022-09-23T13:08:49.127Z,2101
2022-09-23T13:10:05.357Z,12231
2022-09-23T13:11:21.594Z,5434
2022-09-23T13:12:37.848Z,4725
2022-09-23T13:13:54.077Z,5258
2022-09-23T13:15:09.342Z,2073
2022-09-23T13:16:25.583Z,9918
2022-09-23T13:17:41.824Z,11398
2022-09-23T13:18:58.059Z,8421
2022-09-23T13:20:14.295Z,5841
2022-09-23T13:21:30.535Z,5554
2022-09-23T13:22:45.786Z,6010
2022-09-23T13:24:02.039Z,5846
2022-09-23T13:25:18.262Z,5381
2022-09-23T13:26:34.502Z,5018
2022-09-23T13:27:50.741Z,4799
2022-09-23T13:29:06.993Z,4548
2022-09-23T13:30:23.223Z,4547
2022-09-23T13:31:39.468Z,2422
2022-09-23T13:32:55.706Z,19799
2022-09-23T13:34:11.941Z,9160
2022-09-23T13:35:28.166Z,2570
2022-09-23T13:36:44.422Z,22834
2022-09-23T13:38:00.645Z,18851
2022-09-23T13:39:15.911Z,7190
2022-09-23T13:40:32.154Z,16262
2022-09-23T13:41:48.395Z,24622
2022-09-23T13:43:04.615Z,22620
2022-09-23T13:44:20.862Z,31184
2022-09-23T13:45:37.111Z,21424
2022-09-23T13:46:53.337Z,17207
2022-09-23T13:48:09.570Z,3650
2022-09-23T13:49:25.823Z,11742
2022-09-23T13:50:42.055Z,25700
2022-09-23T13:51:58.303Z,9105
2022-09-23T13:53:14.530Z,16258
2022-09-23T13:54:30.779Z,5426
2022-09-23T13:55:46.018Z,19798
2022-09-23T13:57:02.258Z,25711
2022-09-23T13:58:18.500Z,18801
2022-09-23T13:59:34.747Z,27320
2022-09-23T14:00:50.982Z,22306
2022-09-23T14:02:07.218Z,6994
2022-09-23T14:03:23.469Z,13566
2022-09-23T14:04:39.702Z,19338
2022-09-23T14:05:55.928Z,5439
2022-09-23T14:07:12.168Z,3266
2022-09-23T14:08:28.405Z,3125
2022-09-23T14:09:44.652Z,2228
2022-09-23T14:11:00.899Z,15641
2022-09-23T14:12:16.155Z,13655
2022-09-23T14:13:32.391Z,15755
2022-09-23T14:14:48.631Z,12285
2022-09-23T14:16:04.856Z,12548
2022-09-23T14:17:21.109Z,8287
2022-09-23T14:18:37.351Z,10015
2022-09-23T14:19:53.571Z,12623
2022-09-23T14:21:09.822Z,4118
2022-09-23T14:22:26.052Z,3641
2022-09-23T14:23:42.302Z,3532
2022-09-23T14:24:58.525Z,3198
2022-09-23T14:26:14.763Z,2336
2022-09-23T14:27:31.020Z,4513
2022-09-23T14:28:46.265Z,3549
2022-09-23T14:30:02.501Z,3382
2022-09-23T14:31:18.750Z,1903
2022-09-23T14:32:34.974Z,16537
2022-09-23T14:33:51.219Z,13163
2022-09-23T14:35:07.453Z,12486
2022-09-23T14:36:23.705Z,5018
2022-09-23T14:37:39.936Z,8308
2022-09-23T14:38:56.169Z,3324
2022-09-23T14:40:12.412Z,2978
2022-09-23T14:41:28.643Z,2772
2022-09-23T14:42:44.879Z,1424
2022-09-23T14:44:01.134Z,3890
2022-09-23T14:45:16.388Z,4128
2022-09-23T14:46:32.622Z,951
2022-09-23T14:47:48.867Z,5628
2022-09-23T14:49:05.106Z,3286
2022-09-23T14:50:21.330Z,3384
2022-09-23T14:51:37.580Z,1618
2022-09-23T14:52:53.805Z,8351
2022-09-23T14:54:10.051Z,8741
2022-09-23T14:55:26.292Z,6690
2022-09-23T14:56:42.539Z,3787
2022-09-23T14:57:58.757Z,7032
2022-09-23T14:59:15.000Z,6641
2022-09-23T15:00:31.236Z,4382
2022-09-23T15:01:46.501Z,2818
2022-09-23T15:03:02.740Z,2664
2022-09-23T15:04:18.967Z,3174
2022-09-23T15:05:35.206Z,1487
2022-09-23T15:06:51.463Z,2070
2022-09-23T15:08:07.691Z,3744
2022-09-23T15:09:23.920Z,3552
2022-09-23T15:10:40.167Z,5716
2022-09-23T15:11:56.407Z,4274
2022-09-23T15:13:12.646Z,3743
2022-09-23T15:14:28.886Z,3913
2022-09-23T15:15:45.120Z,3198
2022-09-23T15:17:01.332Z,2774
2022-09-23T15:18:16.601Z,2590
2022-09-23T15:19:32.820Z,2537
2022-09-23T15:20:49.068Z,2618
2022-09-23T15:22:05.300Z,2617
2022-09-23T15:23:21.535Z,2477
2022-09-23T15:24:37.775Z,2555
2022-09-23T15:25:54.024Z,2506
2022-09-23T15:27:10.268Z,2552
2022-09-23T15:28:26.492Z,2513
2022-09-23T15:29:42.740Z,2427
2022-09-23T15:30:58.979Z,2461
2022-09-23T15:32:15.208Z,2433
2022-09-23T15:33:31.459Z,2462
2022-09-23T15:34:46.699Z,2407
2022-09-23T15:36:02.939Z,2384
2022-09-23T15:37:19.180Z,2237
2022-09-23T15:38:35.427Z,2020
2022-09-23T15:39:51.666Z,2082
2022-09-23T15:41:07.898Z,2076
2022-09-23T15:42:24.143Z,2015
2022-09-23T15:43:40.370Z,2007
2022-09-23T15:44:56.616Z,2003
2022-09-23T15:46:12.850Z,1945
2022-09-23T15:47:29.087Z,1816
2022-09-23T15:48:45.338Z,1746
2022-09-23T15:50:01.571Z,1688
2022-09-23T15:51:16.832Z,1614
2022-09-23T15:52:33.067Z,1525
2022-09-23T15:53:49.311Z,1492
2022-09-23T15:55:05.545Z,1421
2022-09-23T15:56:21.771Z,1369
2022-09-23T15:57:38.018Z,1316
2022-09-23T15:58:54.265Z,1248
2022-09-23T16:00:10.493Z,1184
2022-09-23T16:01:26.726Z,1129
2022-09-23T16:02:42.979Z,1060
2022-09-23T16:03:59.211Z,1014
2022-09-23T16:05:15.446Z,975
2022-09-23T16:06:31.693Z,935
2022-09-23T16:07:46.953Z,886
2022-09-23T16:09:03.186Z,856
2022-09-23T16:10:19.417Z,826
2022-09-23T16:11:35.665Z,795
2022-09-23T16:12:51.886Z,765
2022-09-23T16:14:08.141Z,738
2022-09-23T16:15:24.381Z,703
2022-09-23T16:16:40.606Z,676
2022-09-23T16:17:56.856Z,637
2022-09-23T16:19:13.082Z,640
2022-09-23T16:20:29.326Z,614
2022-09-23T16:21:45.557Z,590
2022-09-23T16:23:01.800Z,572
2022-09-23T16:24:17.056Z,546
2022-09-23T16:25:33.303Z,523
2022-09-23T16:26:49.535Z,502
2022-09-23T16:28:05.766Z,477
2022-09-23T16:29:22.003Z,457
2022-09-23T16:30:38.252Z,443
2022-09-23T16:31:54.486Z,425
2022-09-23T16:33:10.731Z,410
2022-09-23T16:34:26.962Z,393
2022-09-23T16:35:43.205Z,374
2022-09-23T16:36:59.452Z,363
2022-09-23T16:38:15.690Z,348
2022-09-23T16:39:31.914Z,329
2022-09-23T16:40:47.179Z,316
2022-09-23T16:42:03.404Z,297
2022-09-23T16:43:19.655Z,286
2022-09-23T16:44:35.890Z,273
2022-09-23T16:45:52.135Z,255
2022-09-23T16:47:08.360Z,240
2022-09-23T16:48:24.607Z,225
2022-09-23T16:49:40.833Z,209
2022-09-23T16:50:57.085Z,197
2022-09-23T16:52:13.323Z,182
2022-09-23T16:53:29.561Z,167
2022-09-23T16:54:45.793Z,156
2022-09-23T16:56:02.044Z,146
2022-09-23T16:57:17.285Z,136
2022-09-23T16:58:33.536Z,118
2022-09-23T17:01:06.016Z,89
2022-09-23T17:02:22.249Z,78
2022-09-23T17:03:38.484Z,65
2022-09-23T17:04:54.728Z,58
2022-09-23T17:06:10.953Z,52
2022-09-23T17:07:27.198Z,46
2022-09-23T17:08:43.436Z,42
2022-09-23T17:09:59.673Z,39
2022-09-23T17:11:15.000Z,32
2022-09-23T17:12:32.147Z,29
2022-09-23T17:13:47.408Z,25
2022-09-23T17:15:03.649Z,23
2022-09-23T17:16:19.890Z,20
2022-09-23T17:17:36.121Z,17
2022-09-23T17:18:52.354Z,12
2022-09-23T17:20:08.607Z,12
2022-09-23T17:21:24.830Z,8
2022-09-23T17:22:41.077Z,8
2022-09-23T17:23:57.315Z,6
2022-09-23T17:25:13.553Z,3
2022-09-23T17:26:29.796Z,3
2022-09-23T17:27:46.027Z,3
2022-09-23T17:29:02.276Z,2
2022-09-23T17:30:18.510Z,2